sensor_id;sensor_type;location;lat;lon;timestamp;temperature;humidity
61896;DHT22;47835;52.778;5.956;2022-10-16T00:02:21;18.40;99.90
61896;DHT22;47835;52.778;5.956;2022-10-16T00:04:47;18.40;99.90
61896;DHT22;47835;52.778;5.956;2022-10-16T00:07:12;18.40;99.90
61896;DHT22;47835;52.778;5.956;2022-10-16T00:09:38;18.40;99.90
61896;DHT22;47835;52.778;5.956;2022-10-16T00:12:03;18.40;99.90
61896;DHT22;47835;52.778;5.956;2022-10-16T00:14:31;18.40;99.90
61896;DHT22;47835;52.778;5.956;2022-10-16T00:16:57;18.40;99.90
61896;DHT22;47835;52.778;5.956;2022-10-16T00:19:22;18.40;99.90
61896;DHT22;47835;52.778;5.956;2022-10-16T00:21:48;18.40;99.90
61896;DHT22;47835;52.778;5.956;2022-10-16T00:24:13;18.40;99.90
61896;DHT22;47835;52.778;5.956;2022-10-16T00:26:39;18.40;99.90
61896;DHT22;47835;52.778;5.956;2022-10-16T00:29:05;18.40;99.90
61896;DHT22;47835;52.778;5.956;2022-10-16T00:31:30;18.40;99.90
61896;DHT22;47835;52.778;5.956;2022-10-16T00:33:56;18.40;99.90
61896;DHT22;47835;52.778;5.956;2022-10-16T00:36:22;18.40;99.90
61896;DHT22;47835;52.778;5.956;2022-10-16T00:38:55;18.40;99.90
61896;DHT22;47835;52.778;5.956;2022-10-16T00:41:21;18.40;99.90
61896;DHT22;47835;52.778;5.956;2022-10-16T00:43:48;18.40;99.90
61896;DHT22;47835;52.778;5.956;2022-10-16T00:48:39;18.40;99.90
61896;DHT22;47835;52.778;5.956;2022-10-16T00:51:06;18.40;99.90
61896;DHT22;47835;52.778;5.956;2022-10-16T00:53:32;18.40;99.90
61896;DHT22;47835;52.778;5.956;2022-10-16T00:55:58;18.40;99.90
61896;DHT22;47835;52.778;5.956;2022-10-16T00:58:23;18.40;99.90
61896;DHT22;47835;52.778;5.956;2022-10-16T01:00:49;18.40;99.90
61896;DHT22;47835;52.778;5.956;2022-10-16T01:03:30;18.40;99.90
61896;DHT22;47835;52.778;5.956;2022-10-16T01:06:06;18.40;99.90
61896;DHT22;47835;52.778;5.956;2022-10-16T01:13:40;18.40;99.90
61896;DHT22;47835;52.778;5.956;2022-10-16T01:16:11;18.40;99.90
61896;DHT22;47835;52.778;5.956;2022-10-16T01:18:43;18.40;99.90
61896;DHT22;47835;52.778;5.956;2022-10-16T01:21:22;18.40;99.90
61896;DHT22;47835;52.778;5.956;2022-10-16T01:23:51;18.40;99.90
61896;DHT22;47835;52.778;5.956;2022-10-16T01:28:52;18.40;99.90
61896;DHT22;47835;52.778;5.956;2022-10-16T01:31:19;18.40;99.90
61896;DHT22;47835;52.778;5.956;2022-10-16T01:33:48;18.40;99.90
61896;DHT22;47835;52.778;5.956;2022-10-16T01:36:17;18.40;99.90
61896;DHT22;47835;52.778;5.956;2022-10-16T01:38:44;18.40;99.90
61896;DHT22;47835;52.778;5.956;2022-10-16T01:41:17;18.40;99.90
61896;DHT22;47835;52.778;5.956;2022-10-16T01:43:45;18.40;99.90
61896;DHT22;47835;52.778;5.956;2022-10-16T01:46:11;18.40;99.90
61896;DHT22;47835;52.778;5.956;2022-10-16T01:48:38;18.40;99.90
61896;DHT22;47835;52.778;5.956;2022-10-16T01:51:06;18.40;99.90
61896;DHT22;47835;52.778;5.956;2022-10-16T01:53:32;18.40;99.90
61896;DHT22;47835;52.778;5.956;2022-10-16T01:55:58;18.40;99.90
61896;DHT22;47835;52.778;5.956;2022-10-16T01:58:25;18.40;99.90
61896;DHT22;47835;52.778;5.956;2022-10-16T02:00:50;18.40;99.90
61896;DHT22;47835;52.778;5.956;2022-10-16T02:03:18;18.40;99.90
61896;DHT22;47835;52.778;5.956;2022-10-16T02:05:51;18.40;99.90
61896;DHT22;47835;52.778;5.956;2022-10-16T02:08:17;18.40;99.90
61896;DHT22;47835;52.778;5.956;2022-10-16T02:10:43;18.40;99.90
61896;DHT22;47835;52.778;5.956;2022-10-16T02:13:19;18.40;99.90
61896;DHT22;47835;52.778;5.956;2022-10-16T02:15:47;18.40;99.90
61896;DHT22;47835;52.778;5.956;2022-10-16T02:18:13;18.40;99.90
61896;DHT22;47835;52.778;5.956;2022-10-16T02:20:48;18.40;99.90
61896;DHT22;47835;52.778;5.956;2022-10-16T02:23:16;18.40;99.90
61896;DHT22;47835;52.778;5.956;2022-10-16T02:25:43;18.40;99.90
61896;DHT22;47835;52.778;5.956;2022-10-16T02:33:10;18.40;99.90
61896;DHT22;47835;52.778;5.956;2022-10-16T02:35:38;18.40;99.90
61896;DHT22;47835;52.778;5.956;2022-10-16T02:38:05;18.40;99.90
61896;DHT22;47835;52.778;5.956;2022-10-16T02:40:31;18.40;99.90
61896;DHT22;47835;52.778;5.956;2022-10-16T02:42:56;18.40;99.90
61896;DHT22;47835;52.778;5.956;2022-10-16T02:45:22;18.40;99.90
61896;DHT22;47835;52.778;5.956;2022-10-16T02:47:48;18.40;99.90
61896;DHT22;47835;52.778;5.956;2022-10-16T02:50:14;18.30;99.90
61896;DHT22;47835;52.778;5.956;2022-10-16T02:52:39;18.40;99.90
61896;DHT22;47835;52.778;5.956;2022-10-16T02:55:05;18.40;99.90
61896;DHT22;47835;52.778;5.956;2022-10-16T02:57:30;18.40;99.90
61896;DHT22;47835;52.778;5.956;2022-10-16T02:59:57;18.40;99.90
61896;DHT22;47835;52.778;5.956;2022-10-16T03:02:22;18.40;99.90
61896;DHT22;47835;52.778;5.956;2022-10-16T03:04:48;18.40;99.90
61896;DHT22;47835;52.778;5.956;2022-10-16T03:07:13;18.40;99.90
61896;DHT22;47835;52.778;5.956;2022-10-16T03:09:39;18.40;99.90
61896;DHT22;47835;52.778;5.956;2022-10-16T03:12:04;18.30;99.90
61896;DHT22;47835;52.778;5.956;2022-10-16T03:14:29;18.40;99.90
61896;DHT22;47835;52.778;5.956;2022-10-16T03:16:55;18.40;99.90
61896;DHT22;47835;52.778;5.956;2022-10-16T03:19:20;18.40;99.90
61896;DHT22;47835;52.778;5.956;2022-10-16T03:21:46;18.40;99.90
61896;DHT22;47835;52.778;5.956;2022-10-16T03:24:11;18.40;99.90
61896;DHT22;47835;52.778;5.956;2022-10-16T03:26:37;18.40;99.90
61896;DHT22;47835;52.778;5.956;2022-10-16T03:29:02;18.40;99.90
61896;DHT22;47835;52.778;5.956;2022-10-16T03:31:29;18.40;99.90
61896;DHT22;47835;52.778;5.956;2022-10-16T03:33:54;18.40;99.90
61896;DHT22;47835;52.778;5.956;2022-10-16T03:36:20;18.40;99.90
61896;DHT22;47835;52.778;5.956;2022-10-16T03:38:45;18.40;99.90
61896;DHT22;47835;52.778;5.956;2022-10-16T03:41:11;18.40;99.90
61896;DHT22;47835;52.778;5.956;2022-10-16T03:43:38;18.40;99.90
61896;DHT22;47835;52.778;5.956;2022-10-16T03:46:03;18.40;99.90
61896;DHT22;47835;52.778;5.956;2022-10-16T03:48:29;18.40;99.90
61896;DHT22;47835;52.778;5.956;2022-10-16T03:50:55;18.40;99.90
61896;DHT22;47835;52.778;5.956;2022-10-16T03:53:20;18.40;99.90
61896;DHT22;47835;52.778;5.956;2022-10-16T03:55:45;18.40;99.90
61896;DHT22;47835;52.778;5.956;2022-10-16T03:58:11;18.40;99.90
61896;DHT22;47835;52.778;5.956;2022-10-16T04:00:40;18.40;99.90
61896;DHT22;47835;52.778;5.956;2022-10-16T04:03:05;18.40;99.90
61896;DHT22;47835;52.778;5.956;2022-10-16T04:05:31;18.40;99.90
61896;DHT22;47835;52.778;5.956;2022-10-16T04:07:56;18.40;99.90
61896;DHT22;47835;52.778;5.956;2022-10-16T04:10:21;18.40;99.90
61896;DHT22;47835;52.778;5.956;2022-10-16T04:12:47;18.40;99.90
61896;DHT22;47835;52.778;5.956;2022-10-16T04:15:12;18.40;99.90
61896;DHT22;47835;52.778;5.956;2022-10-16T04:17:38;18.40;99.90
61896;DHT22;47835;52.778;5.956;2022-10-16T04:20:04;18.40;99.90
61896;DHT22;47835;52.778;5.956;2022-10-16T04:22:29;18.40;99.90
61896;DHT22;47835;52.778;5.956;2022-10-16T04:24:55;18.40;99.90
61896;DHT22;47835;52.778;5.956;2022-10-16T04:27:20;18.40;99.90
61896;DHT22;47835;52.778;5.956;2022-10-16T04:29:46;18.40;99.90
61896;DHT22;47835;52.778;5.956;2022-10-16T04:32:11;18.40;99.90
61896;DHT22;47835;52.778;5.956;2022-10-16T04:34:38;18.40;99.90
61896;DHT22;47835;52.778;5.956;2022-10-16T04:37:04;18.30;99.90
61896;DHT22;47835;52.778;5.956;2022-10-16T04:39:30;18.40;99.90
61896;DHT22;47835;52.778;5.956;2022-10-16T04:41:55;18.40;99.90
61896;DHT22;47835;52.778;5.956;2022-10-16T04:44:20;18.40;99.90
61896;DHT22;47835;52.778;5.956;2022-10-16T04:46:46;18.40;99.90
61896;DHT22;47835;52.778;5.956;2022-10-16T04:49:11;18.40;99.90
61896;DHT22;47835;52.778;5.956;2022-10-16T04:51:37;18.30;99.90
61896;DHT22;47835;52.778;5.956;2022-10-16T04:54:02;18.30;99.90
61896;DHT22;47835;52.778;5.956;2022-10-16T04:56:28;18.40;99.90
61896;DHT22;47835;52.778;5.956;2022-10-16T04:58:53;18.30;99.90
61896;DHT22;47835;52.778;5.956;2022-10-16T05:01:19;18.30;99.90
61896;DHT22;47835;52.778;5.956;2022-10-16T05:03:44;18.30;99.90
61896;DHT22;47835;52.778;5.956;2022-10-16T05:06:10;18.40;99.90
61896;DHT22;47835;52.778;5.956;2022-10-16T05:08:35;18.30;99.90
61896;DHT22;47835;52.778;5.956;2022-10-16T05:11:01;18.30;99.90
61896;DHT22;47835;52.778;5.956;2022-10-16T05:13:27;18.40;99.90
61896;DHT22;47835;52.778;5.956;2022-10-16T05:15:53;18.40;99.90
61896;DHT22;47835;52.778;5.956;2022-10-16T05:18:18;18.40;99.90
61896;DHT22;47835;52.778;5.956;2022-10-16T05:20:43;18.30;99.90
61896;DHT22;47835;52.778;5.956;2022-10-16T05:23:09;18.30;99.90
61896;DHT22;47835;52.778;5.956;2022-10-16T05:25:37;18.30;99.90
61896;DHT22;47835;52.778;5.956;2022-10-16T05:28:02;18.30;99.90
61896;DHT22;47835;52.778;5.956;2022-10-16T05:30:28;18.40;99.90
61896;DHT22;47835;52.778;5.956;2022-10-16T05:32:53;18.30;99.90
61896;DHT22;47835;52.778;5.956;2022-10-16T05:35:19;18.40;99.90
61896;DHT22;47835;52.778;5.956;2022-10-16T05:37:45;18.30;99.90
61896;DHT22;47835;52.778;5.956;2022-10-16T05:40:11;18.30;99.90
61896;DHT22;47835;52.778;5.956;2022-10-16T05:42:38;18.30;99.90
61896;DHT22;47835;52.778;5.956;2022-10-16T05:45:04;18.30;99.90
61896;DHT22;47835;52.778;5.956;2022-10-16T05:47:30;18.30;99.90
61896;DHT22;47835;52.778;5.956;2022-10-16T05:49:55;18.30;99.90
61896;DHT22;47835;52.778;5.956;2022-10-16T05:52:21;18.30;99.90
61896;DHT22;47835;52.778;5.956;2022-10-16T05:54:46;18.30;99.90
61896;DHT22;47835;52.778;5.956;2022-10-16T05:57:12;18.30;99.90
61896;DHT22;47835;52.778;5.956;2022-10-16T05:59:37;18.30;99.90
61896;DHT22;47835;52.778;5.956;2022-10-16T06:02:03;18.30;99.90
61896;DHT22;47835;52.778;5.956;2022-10-16T06:04:29;18.30;99.90
61896;DHT22;47835;52.778;5.956;2022-10-16T06:06:57;18.30;99.90
61896;DHT22;47835;52.778;5.956;2022-10-16T06:09:22;18.30;99.90
61896;DHT22;47835;52.778;5.956;2022-10-16T06:11:48;18.30;99.90
61896;DHT22;47835;52.778;5.956;2022-10-16T06:14:13;18.30;99.90
61896;DHT22;47835;52.778;5.956;2022-10-16T06:16:39;18.30;99.90
61896;DHT22;47835;52.778;5.956;2022-10-16T06:19:04;18.30;99.90
61896;DHT22;47835;52.778;5.956;2022-10-16T06:21:33;18.30;99.90
61896;DHT22;47835;52.778;5.956;2022-10-16T06:23:59;18.30;99.90
61896;DHT22;47835;52.778;5.956;2022-10-16T06:26:25;18.30;99.90
61896;DHT22;47835;52.778;5.956;2022-10-16T06:28:51;18.30;99.90
61896;DHT22;47835;52.778;5.956;2022-10-16T06:31:17;18.10;99.90
61896;DHT22;47835;52.778;5.956;2022-10-16T06:33:43;17.90;99.90
61896;DHT22;47835;52.778;5.956;2022-10-16T06:36:12;17.80;99.90
61896;DHT22;47835;52.778;5.956;2022-10-16T06:38:38;17.70;99.90
61896;DHT22;47835;52.778;5.956;2022-10-16T06:41:04;17.60;99.90
61896;DHT22;47835;52.778;5.956;2022-10-16T06:43:30;17.60;99.90
61896;DHT22;47835;52.778;5.956;2022-10-16T06:45:57;17.60;99.90
61896;DHT22;47835;52.778;5.956;2022-10-16T06:48:23;17.50;99.90
61896;DHT22;47835;52.778;5.956;2022-10-16T06:50:59;17.50;99.90
61896;DHT22;47835;52.778;5.956;2022-10-16T06:53:24;17.50;99.90
61896;DHT22;47835;52.778;5.956;2022-10-16T06:55:50;17.50;99.90
61896;DHT22;47835;52.778;5.956;2022-10-16T06:58:16;17.40;99.90
61896;DHT22;47835;52.778;5.956;2022-10-16T07:00:42;17.40;99.90
61896;DHT22;47835;52.778;5.956;2022-10-16T07:03:07;17.50;99.90
61896;DHT22;47835;52.778;5.956;2022-10-16T07:05:37;17.50;99.90
61896;DHT22;47835;52.778;5.956;2022-10-16T07:08:02;17.50;99.90
61896;DHT22;47835;52.778;5.956;2022-10-16T07:10:30;17.50;99.90
61896;DHT22;47835;52.778;5.956;2022-10-16T07:12:56;17.50;99.90
61896;DHT22;47835;52.778;5.956;2022-10-16T07:15:21;17.50;99.90
61896;DHT22;47835;52.778;5.956;2022-10-16T07:17:47;17.40;99.90
61896;DHT22;47835;52.778;5.956;2022-10-16T07:20:12;17.40;99.90
61896;DHT22;47835;52.778;5.956;2022-10-16T07:22:38;17.40;99.90
61896;DHT22;47835;52.778;5.956;2022-10-16T07:25:03;17.40;99.90
61896;DHT22;47835;52.778;5.956;2022-10-16T07:27:29;17.40;99.90
61896;DHT22;47835;52.778;5.956;2022-10-16T07:29:54;17.40;99.90
61896;DHT22;47835;52.778;5.956;2022-10-16T07:32:20;17.40;99.90
61896;DHT22;47835;52.778;5.956;2022-10-16T07:34:45;17.40;99.90
61896;DHT22;47835;52.778;5.956;2022-10-16T07:37:11;17.30;99.90
61896;DHT22;47835;52.778;5.956;2022-10-16T07:39:36;17.40;99.90
61896;DHT22;47835;52.778;5.956;2022-10-16T07:42:02;17.30;99.90
61896;DHT22;47835;52.778;5.956;2022-10-16T07:44:27;17.40;99.90
61896;DHT22;47835;52.778;5.956;2022-10-16T07:46:53;17.40;99.90
61896;DHT22;47835;52.778;5.956;2022-10-16T07:49:18;17.40;99.90
61896;DHT22;47835;52.778;5.956;2022-10-16T07:51:44;17.40;99.90
61896;DHT22;47835;52.778;5.956;2022-10-16T07:54:09;17.50;99.90
61896;DHT22;47835;52.778;5.956;2022-10-16T07:56:35;17.50;99.90
61896;DHT22;47835;52.778;5.956;2022-10-16T07:59:01;17.40;99.90
61896;DHT22;47835;52.778;5.956;2022-10-16T08:01:26;17.50;99.90
61896;DHT22;47835;52.778;5.956;2022-10-16T08:03:52;17.40;99.90
61896;DHT22;47835;52.778;5.956;2022-10-16T08:06:18;17.50;99.90
61896;DHT22;47835;52.778;5.956;2022-10-16T08:08:44;17.50;99.90
61896;DHT22;47835;52.778;5.956;2022-10-16T08:11:09;17.40;99.90
61896;DHT22;47835;52.778;5.956;2022-10-16T08:13:35;17.40;99.90
61896;DHT22;47835;52.778;5.956;2022-10-16T08:16:01;17.40;99.90
61896;DHT22;47835;52.778;5.956;2022-10-16T08:18:27;17.40;99.90
61896;DHT22;47835;52.778;5.956;2022-10-16T08:20:56;17.50;99.90
61896;DHT22;47835;52.778;5.956;2022-10-16T08:23:22;17.40;99.90
61896;DHT22;47835;52.778;5.956;2022-10-16T08:25:48;17.50;99.90
61896;DHT22;47835;52.778;5.956;2022-10-16T08:28:13;17.60;99.90
61896;DHT22;47835;52.778;5.956;2022-10-16T08:30:39;17.50;99.90
61896;DHT22;47835;52.778;5.956;2022-10-16T08:33:04;17.50;99.90
61896;DHT22;47835;52.778;5.956;2022-10-16T08:35:31;17.60;99.90
61896;DHT22;47835;52.778;5.956;2022-10-16T08:37:56;17.50;99.90
61896;DHT22;47835;52.778;5.956;2022-10-16T08:40:25;17.60;99.90
61896;DHT22;47835;52.778;5.956;2022-10-16T08:43:05;17.60;99.90
61896;DHT22;47835;52.778;5.956;2022-10-16T08:48:06;17.70;99.90
61896;DHT22;47835;52.778;5.956;2022-10-16T08:50:36;17.70;99.90
61896;DHT22;47835;52.778;5.956;2022-10-16T08:53:03;17.70;99.90
61896;DHT22;47835;52.778;5.956;2022-10-16T08:55:41;17.70;99.90
61896;DHT22;47835;52.778;5.956;2022-10-16T09:00:38;17.80;99.90
61896;DHT22;47835;52.778;5.956;2022-10-16T09:05:37;17.80;99.90
61896;DHT22;47835;52.778;5.956;2022-10-16T09:18:41;17.90;99.90
61896;DHT22;47835;52.778;5.956;2022-10-16T09:21:26;17.90;99.90
61896;DHT22;47835;52.778;5.956;2022-10-16T09:23:54;18.00;99.90
61896;DHT22;47835;52.778;5.956;2022-10-16T09:26:21;17.90;99.90
61896;DHT22;47835;52.778;5.956;2022-10-16T09:28:47;17.90;99.90
61896;DHT22;47835;52.778;5.956;2022-10-16T09:31:17;18.00;99.90
61896;DHT22;47835;52.778;5.956;2022-10-16T09:33:43;17.90;99.90
61896;DHT22;47835;52.778;5.956;2022-10-16T09:36:09;17.90;99.90
61896;DHT22;47835;52.778;5.956;2022-10-16T09:38:35;17.90;99.90
61896;DHT22;47835;52.778;5.956;2022-10-16T09:43:45;17.90;99.90
61896;DHT22;47835;52.778;5.956;2022-10-16T09:46:28;17.90;99.90
61896;DHT22;47835;52.778;5.956;2022-10-16T09:48:56;17.80;99.90
61896;DHT22;47835;52.778;5.956;2022-10-16T09:51:24;17.90;99.90
61896;DHT22;47835;52.778;5.956;2022-10-16T09:53:53;17.90;99.90
61896;DHT22;47835;52.778;5.956;2022-10-16T09:56:26;17.90;99.90
61896;DHT22;47835;52.778;5.956;2022-10-16T09:58:53;17.90;99.90
61896;DHT22;47835;52.778;5.956;2022-10-16T10:01:19;18.00;99.90
61896;DHT22;47835;52.778;5.956;2022-10-16T10:03:45;18.00;99.90
61896;DHT22;47835;52.778;5.956;2022-10-16T10:06:16;18.00;99.90
61896;DHT22;47835;52.778;5.956;2022-10-16T10:11:36;18.00;99.90
61896;DHT22;47835;52.778;5.956;2022-10-16T10:14:21;18.00;99.90
61896;DHT22;47835;52.778;5.956;2022-10-16T10:16:47;18.00;99.90
61896;DHT22;47835;52.778;5.956;2022-10-16T10:19:17;18.10;99.90
61896;DHT22;47835;52.778;5.956;2022-10-16T10:21:42;18.10;99.90
61896;DHT22;47835;52.778;5.956;2022-10-16T10:24:12;18.10;99.90
61896;DHT22;47835;52.778;5.956;2022-10-16T10:26:38;18.10;99.90
61896;DHT22;47835;52.778;5.956;2022-10-16T10:31:34;18.10;99.90
61896;DHT22;47835;52.778;5.956;2022-10-16T10:34:18;18.10;99.90
61896;DHT22;47835;52.778;5.956;2022-10-16T10:36:46;18.20;99.90
61896;DHT22;47835;52.778;5.956;2022-10-16T10:39:21;18.20;99.90
61896;DHT22;47835;52.778;5.956;2022-10-16T10:47:02;18.10;99.90
61896;DHT22;47835;52.778;5.956;2022-10-16T10:54:38;18.20;99.90
61896;DHT22;47835;52.778;5.956;2022-10-16T10:57:09;18.20;99.90
61896;DHT22;47835;52.778;5.956;2022-10-16T11:02:13;18.10;99.90
61896;DHT22;47835;52.778;5.956;2022-10-16T11:07:29;18.20;99.90
61896;DHT22;47835;52.778;5.956;2022-10-16T11:10:11;18.20;99.90
61896;DHT22;47835;52.778;5.956;2022-10-16T11:12:51;18.20;99.90
61896;DHT22;47835;52.778;5.956;2022-10-16T11:20:18;18.20;99.90
61896;DHT22;47835;52.778;5.956;2022-10-16T11:22:50;18.20;99.90
61896;DHT22;47835;52.778;5.956;2022-10-16T11:25:30;18.20;99.90
61896;DHT22;47835;52.778;5.956;2022-10-16T11:28:15;18.20;99.90
61896;DHT22;47835;52.778;5.956;2022-10-16T11:35:57;18.30;99.90
61896;DHT22;47835;52.778;5.956;2022-10-16T11:38:43;18.30;99.90
61896;DHT22;47835;52.778;5.956;2022-10-16T11:41:12;18.30;99.90
61896;DHT22;47835;52.778;5.956;2022-10-16T11:43:46;18.20;99.90
61896;DHT22;47835;52.778;5.956;2022-10-16T11:46:17;18.30;99.90
61896;DHT22;47835;52.778;5.956;2022-10-16T11:51:40;18.30;99.90
61896;DHT22;47835;52.778;5.956;2022-10-16T11:56:42;18.30;99.90
61896;DHT22;47835;52.778;5.956;2022-10-16T11:59:21;18.30;99.90
61896;DHT22;47835;52.778;5.956;2022-10-16T12:01:53;18.20;99.90
61896;DHT22;47835;52.778;5.956;2022-10-16T12:07:03;18.20;99.90
61896;DHT22;47835;52.778;5.956;2022-10-16T12:09:31;18.20;99.90
61896;DHT22;47835;52.778;5.956;2022-10-16T12:11:57;18.20;99.90
61896;DHT22;47835;52.778;5.956;2022-10-16T12:16:58;18.20;99.90
61896;DHT22;47835;52.778;5.956;2022-10-16T12:19:28;18.20;99.90
61896;DHT22;47835;52.778;5.956;2022-10-16T12:21:57;18.20;99.90
61896;DHT22;47835;52.778;5.956;2022-10-16T12:24:28;18.20;99.90
61896;DHT22;47835;52.778;5.956;2022-10-16T12:26:55;18.20;99.90
61896;DHT22;47835;52.778;5.956;2022-10-16T12:31:46;18.20;99.90
61896;DHT22;47835;52.778;5.956;2022-10-16T12:37:08;18.20;99.90
61896;DHT22;47835;52.778;5.956;2022-10-16T12:39:34;18.20;99.90
61896;DHT22;47835;52.778;5.956;2022-10-16T12:42:17;18.30;99.90
61896;DHT22;47835;52.778;5.956;2022-10-16T12:44:44;18.30;99.90
61896;DHT22;47835;52.778;5.956;2022-10-16T12:47:18;18.20;99.90
61896;DHT22;47835;52.778;5.956;2022-10-16T12:49:49;18.20;99.90
61896;DHT22;47835;52.778;5.956;2022-10-16T12:54:59;18.20;99.90
61896;DHT22;47835;52.778;5.956;2022-10-16T13:02:41;18.20;99.90
61896;DHT22;47835;52.778;5.956;2022-10-16T13:05:20;18.20;99.90
61896;DHT22;47835;52.778;5.956;2022-10-16T13:17:58;18.30;99.90
61896;DHT22;47835;52.778;5.956;2022-10-16T13:20:31;18.30;99.90
61896;DHT22;47835;52.778;5.956;2022-10-16T13:27:56;18.30;99.90
61896;DHT22;47835;52.778;5.956;2022-10-16T13:30:31;18.30;99.90
61896;DHT22;47835;52.778;5.956;2022-10-16T13:33:07;18.30;99.90
61896;DHT22;47835;52.778;5.956;2022-10-16T13:35:46;18.30;99.90
61896;DHT22;47835;52.778;5.956;2022-10-16T13:40:37;18.30;99.90
61896;DHT22;47835;52.778;5.956;2022-10-16T13:43:12;18.30;99.90
61896;DHT22;47835;52.778;5.956;2022-10-16T13:45:38;18.30;99.90
61896;DHT22;47835;52.778;5.956;2022-10-16T13:48:09;18.30;99.90
61896;DHT22;47835;52.778;5.956;2022-10-16T13:50:37;18.30;99.90
61896;DHT22;47835;52.778;5.956;2022-10-16T13:53:04;18.30;99.90
61896;DHT22;47835;52.778;5.956;2022-10-16T13:55:29;18.30;99.90
61896;DHT22;47835;52.778;5.956;2022-10-16T13:58:04;18.30;99.90
61896;DHT22;47835;52.778;5.956;2022-10-16T14:00:29;18.30;99.90
61896;DHT22;47835;52.778;5.956;2022-10-16T14:02:57;18.30;99.90
61896;DHT22;47835;52.778;5.956;2022-10-16T14:05:23;18.30;99.90
61896;DHT22;47835;52.778;5.956;2022-10-16T14:07:49;18.30;99.90
61896;DHT22;47835;52.778;5.956;2022-10-16T14:10:23;18.40;99.90
61896;DHT22;47835;52.778;5.956;2022-10-16T14:13:00;18.40;99.90
61896;DHT22;47835;52.778;5.956;2022-10-16T14:15:27;18.40;99.90
61896;DHT22;47835;52.778;5.956;2022-10-16T14:17:52;18.40;99.90
61896;DHT22;47835;52.778;5.956;2022-10-16T14:20:18;18.40;99.90
61896;DHT22;47835;52.778;5.956;2022-10-16T14:22:45;18.40;99.90
61896;DHT22;47835;52.778;5.956;2022-10-16T14:28:14;18.40;99.90
61896;DHT22;47835;52.778;5.956;2022-10-16T14:30:50;18.40;99.90
61896;DHT22;47835;52.778;5.956;2022-10-16T14:33:23;18.40;99.90
61896;DHT22;47835;52.778;5.956;2022-10-16T14:38:24;18.50;99.90
61896;DHT22;47835;52.778;5.956;2022-10-16T14:40:49;18.40;99.90
61896;DHT22;47835;52.778;5.956;2022-10-16T14:45:56;18.40;99.90
61896;DHT22;47835;52.778;5.956;2022-10-16T14:48:22;18.50;99.90
61896;DHT22;47835;52.778;5.956;2022-10-16T14:50:47;18.50;99.90
61896;DHT22;47835;52.778;5.956;2022-10-16T14:53:13;18.50;99.90
61896;DHT22;47835;52.778;5.956;2022-10-16T14:55:39;18.50;99.90
61896;DHT22;47835;52.778;5.956;2022-10-16T14:58:05;18.50;99.90
61896;DHT22;47835;52.778;5.956;2022-10-16T15:00:31;18.60;99.90
61896;DHT22;47835;52.778;5.956;2022-10-16T15:02:56;18.60;99.90
61896;DHT22;47835;52.778;5.956;2022-10-16T15:05:23;18.60;99.90
61896;DHT22;47835;52.778;5.956;2022-10-16T15:07:49;18.60;99.90
61896;DHT22;47835;52.778;5.956;2022-10-16T15:10:16;18.60;99.90
61896;DHT22;47835;52.778;5.956;2022-10-16T15:12:42;18.50;99.90
61896;DHT22;47835;52.778;5.956;2022-10-16T15:15:49;18.50;99.90
61896;DHT22;47835;52.778;5.956;2022-10-16T15:17:56;18.50;99.90
61896;DHT22;47835;52.778;5.956;2022-10-16T15:20:25;18.50;99.90
61896;DHT22;47835;52.778;5.956;2022-10-16T15:22:51;18.50;99.90
61896;DHT22;47835;52.778;5.956;2022-10-16T15:27:51;18.60;99.90
61896;DHT22;47835;52.778;5.956;2022-10-16T15:30:17;18.50;99.90
61896;DHT22;47835;52.778;5.956;2022-10-16T15:32:42;18.50;99.90
61896;DHT22;47835;52.778;5.956;2022-10-16T15:35:08;18.50;99.90
61896;DHT22;47835;52.778;5.956;2022-10-16T15:37:34;18.50;99.90
61896;DHT22;47835;52.778;5.956;2022-10-16T15:40:00;18.50;99.90
61896;DHT22;47835;52.778;5.956;2022-10-16T15:42:25;18.50;99.90
61896;DHT22;47835;52.778;5.956;2022-10-16T15:44:51;18.50;99.90
61896;DHT22;47835;52.778;5.956;2022-10-16T15:47:16;18.50;99.90
61896;DHT22;47835;52.778;5.956;2022-10-16T15:49:42;18.50;99.90
61896;DHT22;47835;52.778;5.956;2022-10-16T15:52:07;18.50;99.90
61896;DHT22;47835;52.778;5.956;2022-10-16T15:54:32;18.50;99.90
61896;DHT22;47835;52.778;5.956;2022-10-16T15:56:58;18.50;99.90
61896;DHT22;47835;52.778;5.956;2022-10-16T15:59:23;18.50;99.90
61896;DHT22;47835;52.778;5.956;2022-10-16T16:01:49;18.50;99.90
61896;DHT22;47835;52.778;5.956;2022-10-16T16:04:14;18.50;99.90
61896;DHT22;47835;52.778;5.956;2022-10-16T16:06:42;18.50;99.90
61896;DHT22;47835;52.778;5.956;2022-10-16T16:09:10;18.50;99.90
61896;DHT22;47835;52.778;5.956;2022-10-16T16:11:35;18.50;99.90
61896;DHT22;47835;52.778;5.956;2022-10-16T16:14:04;18.50;99.90
61896;DHT22;47835;52.778;5.956;2022-10-16T16:16:30;18.50;99.90
61896;DHT22;47835;52.778;5.956;2022-10-16T16:18:55;18.40;99.90
61896;DHT22;47835;52.778;5.956;2022-10-16T16:21:21;18.40;99.90
61896;DHT22;47835;52.778;5.956;2022-10-16T16:23:46;18.40;99.90
61896;DHT22;47835;52.778;5.956;2022-10-16T16:26:16;18.40;99.90
61896;DHT22;47835;52.778;5.956;2022-10-16T16:28:47;18.40;99.90
61896;DHT22;47835;52.778;5.956;2022-10-16T16:31:12;18.40;99.90
61896;DHT22;47835;52.778;5.956;2022-10-16T16:33:38;18.40;99.90
61896;DHT22;47835;52.778;5.956;2022-10-16T16:36:04;18.40;99.90
61896;DHT22;47835;52.778;5.956;2022-10-16T16:38:31;18.30;99.90
61896;DHT22;47835;52.778;5.956;2022-10-16T16:40:57;18.40;99.90
61896;DHT22;47835;52.778;5.956;2022-10-16T16:43:26;18.40;99.90
61896;DHT22;47835;52.778;5.956;2022-10-16T16:45:52;18.40;99.90
61896;DHT22;47835;52.778;5.956;2022-10-16T16:48:18;18.40;99.90
61896;DHT22;47835;52.778;5.956;2022-10-16T16:50:43;18.40;99.90
61896;DHT22;47835;52.778;5.956;2022-10-16T16:53:09;18.40;99.90
61896;DHT22;47835;52.778;5.956;2022-10-16T16:55:34;18.40;99.90
61896;DHT22;47835;52.778;5.956;2022-10-16T16:58:00;18.40;99.90
61896;DHT22;47835;52.778;5.956;2022-10-16T17:00:25;18.40;99.90
61896;DHT22;47835;52.778;5.956;2022-10-16T17:02:51;18.40;99.90
61896;DHT22;47835;52.778;5.956;2022-10-16T17:05:17;18.40;99.90
61896;DHT22;47835;52.778;5.956;2022-10-16T17:07:43;18.40;99.90
61896;DHT22;47835;52.778;5.956;2022-10-16T17:10:08;18.40;99.90
61896;DHT22;47835;52.778;5.956;2022-10-16T17:12:34;18.40;99.90
61896;DHT22;47835;52.778;5.956;2022-10-16T17:15:00;18.40;99.90
61896;DHT22;47835;52.778;5.956;2022-10-16T17:17:25;18.40;99.90
61896;DHT22;47835;52.778;5.956;2022-10-16T17:19:51;18.40;99.90
61896;DHT22;47835;52.778;5.956;2022-10-16T17:22:17;18.50;99.90
61896;DHT22;47835;52.778;5.956;2022-10-16T17:24:42;18.40;99.90
61896;DHT22;47835;52.778;5.956;2022-10-16T17:27:08;18.40;99.90
61896;DHT22;47835;52.778;5.956;2022-10-16T17:29:34;18.50;99.90
61896;DHT22;47835;52.778;5.956;2022-10-16T17:32:00;18.40;99.90